createdAt,value
2019-05-10T00:03:08.107Z,89.74
2019-05-10T00:08:44.810Z,89.57
2019-05-10T00:14:25.869Z,90.30
2019-05-10T00:19:47.543Z,89.95
2019-05-10T00:25:09.598Z,89.95
2019-05-10T00:30:31.444Z,89.93
2019-05-10T00:35:53.688Z,89.32
2019-05-10T00:41:15.289Z,89.17
2019-05-10T00:46:37.629Z,89.20
2019-05-10T00:51:59.744Z,89.33
2019-05-10T00:57:21.387Z,89.19
2019-05-10T01:02:42.923Z,89.26
2019-05-10T01:08:04.675Z,89.29
2019-05-10T01:13:26.418Z,89.09
2019-05-10T01:18:47.592Z,88.95
2019-05-10T01:24:09.201Z,88.76
2019-05-10T01:29:30.792Z,89.10
2019-05-10T01:34:52.380Z,89.12
2019-05-10T01:40:14.414Z,89.41
2019-05-10T01:45:35.760Z,89.33
2019-05-10T01:50:57.511Z,89.44
2019-05-10T01:56:19.092Z,89.79
2019-05-10T02:01:40.843Z,89.95
2019-05-10T02:07:02.630Z,89.97
2019-05-10T02:12:25.758Z,90.07
2019-05-10T02:17:47.569Z,90.42
2019-05-10T02:23:09.296Z,89.92
2019-05-10T02:28:31.273Z,90.28
2019-05-10T02:33:53.439Z,90.33
2019-05-10T02:39:14.905Z,90.29
2019-05-10T02:44:36.876Z,90.01
2019-05-10T02:49:59.333Z,89.94
2019-05-10T02:55:22.015Z,90.19
2019-05-10T03:00:45.828Z,90.06
2019-05-10T03:06:07.734Z,90.61
2019-05-10T03:11:32.669Z,91.12
2019-05-10T03:16:54.108Z,91.26
2019-05-10T03:22:18.025Z,90.43
2019-05-10T03:27:39.805Z,90.08
2019-05-10T03:33:01.659Z,90.11
2019-05-10T03:38:23.605Z,89.85
2019-05-10T03:43:45.389Z,89.70
2019-05-10T03:49:07.107Z,89.63
2019-05-10T03:54:28.939Z,89.18
2019-05-10T03:59:50.347Z,88.93
2019-05-10T04:05:12.628Z,88.44
2019-05-10T04:10:34.073Z,88.78
2019-05-10T04:15:55.693Z,88.78
2019-05-10T04:21:17.459Z,89.49
2019-05-10T04:26:39.505Z,89.93
2019-05-10T04:32:01.195Z,90.03
2019-05-10T04:37:22.960Z,89.83
2019-05-10T04:42:44.798Z,89.82
2019-05-10T04:48:06.537Z,89.92
2019-05-10T04:53:28.381Z,89.71
2019-05-10T04:58:49.741Z,89.91
2019-05-10T05:04:11.206Z,89.85
2019-05-10T05:09:32.826Z,90.12
2019-05-10T05:14:54.359Z,89.88
2019-05-10T05:20:16.126Z,90.06
2019-05-10T05:25:40.242Z,89.79
2019-05-10T05:31:01.502Z,89.76
2019-05-10T05:36:23.280Z,89.30
2019-05-10T05:41:48.905Z,88.44
2019-05-10T05:47:08.514Z,87.30
2019-05-10T05:52:30.416Z,86.43
2019-05-10T05:57:52.189Z,85.92
2019-05-10T06:03:19.265Z,85.77
2019-05-10T06:08:37.199Z,85.70
2019-05-10T06:14:03.925Z,85.78
2019-05-10T06:19:29.380Z,84.39
2019-05-10T06:24:46.651Z,84.30
2019-05-10T06:30:09.910Z,84.10
2019-05-10T06:35:31.848Z,83.33
2019-05-10T06:40:53.379Z,83.33
2019-05-10T06:46:15.170Z,82.65
2019-05-10T06:51:36.778Z,81.88
2019-05-10T06:56:58.447Z,81.82
2019-05-10T07:02:26.002Z,81.55
2019-05-10T07:07:45.402Z,81.78
2019-05-10T07:13:07.412Z,80.86
2019-05-10T07:18:29.408Z,79.79
2019-05-10T07:23:50.940Z,80.31
2019-05-10T07:29:27.910Z,80.32
2019-05-10T07:34:36.192Z,80.60
2019-05-10T07:39:57.361Z,79.11
2019-05-10T07:45:25.647Z,78.74
2019-05-10T07:50:49.688Z,78.49
2019-05-10T07:56:08.006Z,77.58
2019-05-10T08:01:32.704Z,76.71
2019-05-10T08:06:53.395Z,75.74
2019-05-10T08:12:15.249Z,75.09
2019-05-10T08:17:43.134Z,75.85
2019-05-10T08:23:02.825Z,76.49
2019-05-10T08:28:27.872Z,76.47
2019-05-10T08:33:53.670Z,77.20
2019-05-10T08:39:13.986Z,78.51
2019-05-10T08:44:35.842Z,78.04
2019-05-10T08:50:11.798Z,74.12
2019-05-10T08:55:22.628Z,70.52
2019-05-10T09:00:54.277Z,71.89
2019-05-10T09:06:11.885Z,71.22
2019-05-10T09:11:32.749Z,71.22
2019-05-10T09:17:00.776Z,69.89
2019-05-10T09:22:26.042Z,68.55
2019-05-10T09:28:04.503Z,71.25
2019-05-10T09:33:22.456Z,75.45
2019-05-10T09:38:46.375Z,81.53
2019-05-10T09:44:08.185Z,85.71
2019-05-10T09:49:30.061Z,87.36
2019-05-10T09:54:51.136Z,83.70
2019-05-10T10:00:17.459Z,84.28
2019-05-10T10:05:40.305Z,82.63
2019-05-10T10:11:13.302Z,76.86
2019-05-10T10:16:28.070Z,74.92
2019-05-10T10:21:49.505Z,74.54
2019-05-10T10:27:11.070Z,76.05
2019-05-10T10:32:34.871Z,76.84
2019-05-10T10:37:57.541Z,83.18
2019-05-10T10:43:19.977Z,81.71
2019-05-10T10:48:43.665Z,84.01
2019-05-10T10:54:07.411Z,87.46
2019-05-10T10:59:29.430Z,88.78
2019-05-10T11:04:50.755Z,89.26
2019-05-10T11:10:18.994Z,89.48
2019-05-10T11:15:36.773Z,88.93
2019-05-10T11:21:01.761Z,90.71
2019-05-10T11:26:26.768Z,88.75
2019-05-10T11:31:50.174Z,84.60
2019-05-10T11:37:10.647Z,84.44
2019-05-10T11:42:32.509Z,79.62
2019-05-10T11:47:59.089Z,81.44
2019-05-10T11:53:17.976Z,79.61
2019-05-10T11:58:45.964Z,78.15
2019-05-10T12:04:05.153Z,77.25
2019-05-10T12:09:27.068Z,78.80
2019-05-10T12:14:48.913Z,78.63
2019-05-10T12:20:12.529Z,76.56
2019-05-10T12:26:13.469Z,76.75
2019-05-10T12:30:58.334Z,69.69
2019-05-10T12:36:26.066Z,66.72
2019-05-10T12:41:47.805Z,64.39
2019-05-10T12:47:07.856Z,64.51
2019-05-10T12:52:31.933Z,66.46
2019-05-10T12:57:53.525Z,63.33
2019-05-10T13:03:18.856Z,61.21
2019-05-10T13:08:38.682Z,62.58
2019-05-10T13:14:01.071Z,60.36
2019-05-10T13:19:24.470Z,58.84
2019-05-10T13:24:46.309Z,57.26
2019-05-10T13:30:09.551Z,57.67
2019-05-10T13:35:31.316Z,59.31
2019-05-10T13:40:53.243Z,60.47
2019-05-10T13:46:14.712Z,59.82
2019-05-10T13:51:36.371Z,59.16
2019-05-10T13:56:58.104Z,55.94
2019-05-10T14:02:23.018Z,56.72
2019-05-10T14:07:50.965Z,57.17
2019-05-10T14:13:07.424Z,55.19
2019-05-10T14:18:29.354Z,52.74
2019-05-10T14:23:51.248Z,52.74
2019-05-10T14:29:12.908Z,50.74
2019-05-10T14:34:37.921Z,50.17
2019-05-10T14:39:58.502Z,49.99
2019-05-10T14:45:20.696Z,49.99
2019-05-10T14:50:46.214Z,50.29
2019-05-10T14:56:08.033Z,52.57
2019-05-10T15:01:30.234Z,53.71
2019-05-10T15:06:51.853Z,54.79
2019-05-10T15:12:16.289Z,53.16
2019-05-10T15:17:37.286Z,53.16
2019-05-10T15:22:59.458Z,54.46
2019-05-10T15:28:21.065Z,52.97
2019-05-10T15:33:42.865Z,53.47
2019-05-10T15:39:06.019Z,53.33
2019-05-10T15:44:31.205Z,50.47
2019-05-10T15:49:54.657Z,53.10
2019-05-10T15:55:17.072Z,55.86
2019-05-10T16:00:41.545Z,57.18
2019-05-10T16:06:02.935Z,58.31
2019-05-10T16:11:24.454Z,58.68
2019-05-10T16:16:46.321Z,59.92
2019-05-10T16:22:07.839Z,60.29
2019-05-10T16:27:33.959Z,59.64
2019-05-10T16:32:53.619Z,59.19
2019-05-10T16:38:15.812Z,60.65
2019-05-10T16:43:38.251Z,59.80
2019-05-10T16:49:00.076Z,59.79
2019-05-10T16:54:25.517Z,61.45
2019-05-10T16:59:46.125Z,61.81
2019-05-10T17:05:09.666Z,62.68
2019-05-10T17:10:32.914Z,62.89
2019-05-10T17:15:55.617Z,65.08
2019-05-10T17:21:18.867Z,63.10
2019-05-10T17:26:41.082Z,61.58
2019-05-10T17:32:04.592Z,63.50
2019-05-10T17:37:29.861Z,61.69
2019-05-10T17:42:51.606Z,65.17
2019-05-10T17:48:13.864Z,64.09
2019-05-10T17:53:36.554Z,65.12
2019-05-10T17:58:57.992Z,65.24
2019-05-10T18:04:20.402Z,66.40
2019-05-10T18:09:42.369Z,62.59
2019-05-10T18:15:05.213Z,62.38
2019-05-10T18:20:27.138Z,62.68
2019-05-10T18:25:52.514Z,62.92
2019-05-10T18:31:13.102Z,63.11
2019-05-10T18:36:51.042Z,63.50
2019-05-10T18:42:10.023Z,62.70
2019-05-10T18:47:32.783Z,63.12
2019-05-10T18:52:54.795Z,63.41
2019-05-10T18:58:17.245Z,63.45
2019-05-10T19:03:39.425Z,63.63
2019-05-10T19:09:01.454Z,63.16
2019-05-10T19:14:29.013Z,62.64
2019-05-10T19:19:59.271Z,61.87
2019-05-10T19:25:24.163Z,61.01
2019-05-10T19:31:03.800Z,60.97
2019-05-10T19:36:14.747Z,61.26
2019-05-10T19:41:36.445Z,61.66
2019-05-10T19:46:58.396Z,61.53
2019-05-10T19:52:25.616Z,63.07
2019-05-10T19:57:44.224Z,62.56
2019-05-10T20:03:06.337Z,62.64
2019-05-10T20:08:28.119Z,62.28
2019-05-10T20:13:50.401Z,61.77
2019-05-10T20:19:12.809Z,62.42
2019-05-10T20:24:42.142Z,61.53
2019-05-10T20:30:04.405Z,63.29
2019-05-10T20:35:26.142Z,65.53
2019-05-10T20:40:48.097Z,66.85
2019-05-10T20:46:11.577Z,67.79
2019-05-10T20:51:34.123Z,68.56
2019-05-10T20:56:56.100Z,68.77
2019-05-10T21:02:20.177Z,69.91
2019-05-10T21:07:43.606Z,70.87
2019-05-10T21:13:08.168Z,71.75
2019-05-10T21:18:30.325Z,72.86
2019-05-10T21:23:52.166Z,74.12
2019-05-10T21:29:13.895Z,74.46
2019-05-10T21:34:35.435Z,75.13
2019-05-10T21:39:57.656Z,75.09
2019-05-10T21:45:19.975Z,75.10
2019-05-10T21:50:42.115Z,74.88
2019-05-10T21:56:03.979Z,75.01
2019-05-10T22:01:26.022Z,75.38
2019-05-10T22:06:47.942Z,75.58
2019-05-10T22:12:10.287Z,76.31
2019-05-10T22:17:32.082Z,76.89
2019-05-10T22:22:53.704Z,77.92
2019-05-10T22:28:16.215Z,77.91
2019-05-10T22:33:37.866Z,77.49
2019-05-10T22:39:07.131Z,77.44
2019-05-10T22:44:23.369Z,78.26
2019-05-10T22:49:45.399Z,80.34
2019-05-10T22:55:07.754Z,83.19
2019-05-10T23:00:29.622Z,85.28
2019-05-10T23:05:51.467Z,85.99
2019-05-10T23:11:13.341Z,86.51
2019-05-10T23:16:34.833Z,86.66
2019-05-10T23:21:56.646Z,87.52
2019-05-10T23:27:18.572Z,87.91
2019-05-10T23:32:40.189Z,87.07
2019-05-10T23:38:02.010Z,86.52
2019-05-10T23:43:23.669Z,83.05
2019-05-10T23:48:45.620Z,82.54
2019-05-10T23:54:07.416Z,82.78
2019-05-10T23:59:29.082Z,82.28
